Time;durP1;ratioP1;P1;durP2;ratioP2;P2;SDS_P1;SDS_P2;PMS_P1;PMS_P2;Temp;Humidity;BMP_temperature;BMP_pressure;BME280_temperature;BME280_humidity;BME280_pressure;Samples;Min_cycle;Max_cycle;Signal;HPM_P1;HPM_P2
2021/03/07 00:00:11;;;;;;;20.27;13.17;;;-0.50;99.90;;;;;;5033007;28;20293;-74
2021/03/07 00:02:39;;;;;;;19.77;13.27;;;-0.50;99.90;;;;;;5032836;28;20267;-73
2021/03/07 00:05:07;;;;;;;18.27;13.33;;;-0.40;99.90;;;;;;5032892;28;20554;-73
2021/03/07 00:07:34;;;;;;;20.10;13.33;;;-0.40;99.90;;;;;;5032390;28;20236;-73
2021/03/07 00:10:01;;;;;;;18.10;13.10;;;-0.40;99.90;;;;;;5032669;28;20322;-73
2021/03/07 00:12:28;;;;;;;20.37;13.57;;;-0.30;99.90;;;;;;5032913;28;20236;-73
2021/03/07 00:14:54;;;;;;;18.87;13.33;;;-0.40;99.90;;;;;;5032604;28;20753;-73
2021/03/07 00:17:21;;;;;;;20.73;13.00;;;-0.30;99.90;;;;;;5032847;28;20256;-73
2021/03/07 00:19:47;;;;;;;19.97;14.40;;;-0.20;99.90;;;;;;5032323;28;20259;-73
2021/03/07 00:22:14;;;;;;;19.40;12.87;;;-0.10;99.90;;;;;;5032279;28;20267;-73
2021/03/07 00:24:41;;;;;;;17.80;12.57;;;-0.10;99.90;;;;;;5032706;28;20286;-73
2021/03/07 00:27:07;;;;;;;17.60;11.83;;;0.00;99.90;;;;;;5032661;28;20290;-73
2021/03/07 00:29:34;;;;;;;17.30;12.33;;;-0.10;99.90;;;;;;5032851;28;20242;-73
2021/03/07 00:32:00;;;;;;;18.73;12.17;;;-0.10;99.90;;;;;;5032212;28;20612;-73
2021/03/07 00:34:27;;;;;;;20.57;12.80;;;-0.10;99.90;;;;;;5032596;28;20200;-73
2021/03/07 00:36:53;;;;;;;17.73;12.17;;;0.00;99.90;;;;;;5032016;28;20255;-73
2021/03/07 00:39:20;;;;;;;17.60;12.23;;;0.00;99.90;;;;;;5031806;28;20236;-73
2021/03/07 00:41:47;;;;;;;22.27;13.90;;;0.20;99.90;;;;;;5032299;28;20654;-73
2021/03/07 00:44:14;;;;;;;21.93;14.33;;;0.20;99.90;;;;;;5033973;28;20283;-73
2021/03/07 00:46:42;;;;;;;19.27;12.50;;;0.20;99.90;;;;;;5052296;28;20232;-73
2021/03/07 00:49:08;;;;;;;18.83;12.07;;;0.20;99.90;;;;;;5051890;28;20239;-73
2021/03/07 00:51:35;;;;;;;20.27;12.37;;;0.20;99.90;;;;;;5051830;28;20645;-73
2021/03/07 00:54:02;;;;;;;17.70;12.20;;;0.20;99.90;;;;;;5052101;28;20242;-73
2021/03/07 00:56:28;;;;;;;17.67;11.67;;;0.20;99.90;;;;;;5051894;28;20283;-73
2021/03/07 00:58:56;;;;;;;17.80;12.30;;;0.20;99.90;;;;;;5051964;28;20289;-73
2021/03/07 01:01:23;;;;;;;17.63;12.30;;;0.20;99.90;;;;;;5052003;28;20259;-73
2021/03/07 01:03:49;;;;;;;16.77;11.80;;;0.10;99.90;;;;;;5051869;28;20238;-73
2021/03/07 01:06:16;;;;;;;17.77;11.73;;;0.10;99.90;;;;;;5051750;28;20621;-73
2021/03/07 01:08:42;;;;;;;17.97;12.20;;;0.10;99.90;;;;;;5051759;28;20235;-73
2021/03/07 01:11:09;;;;;;;18.37;12.37;;;0.10;99.90;;;;;;5051822;28;20326;-73
2021/03/07 01:13:35;;;;;;;17.77;12.00;;;0.10;99.90;;;;;;5051788;28;20242;-73
2021/03/07 01:16:03;;;;;;;18.03;12.17;;;0.00;99.90;;;;;;5051369;28;20244;-73
2021/03/07 01:18:29;;;;;;;18.10;12.03;;;-0.10;99.90;;;;;;5051429;28;20322;-73
2021/03/07 01:20:56;;;;;;;16.63;11.77;;;-0.20;99.90;;;;;;5051017;28;20231;-74
2021/03/07 01:23:23;;;;;;;19.97;12.60;;;-0.30;99.90;;;;;;5051734;28;20314;-74
2021/03/07 01:25:49;;;;;;;19.23;13.17;;;-0.20;99.90;;;;;;5051647;28;20286;-73
2021/03/07 01:28:16;;;;;;;17.33;12.70;;;-0.20;99.90;;;;;;5051765;28;20287;-73
2021/03/07 01:30:43;;;;;;;19.03;13.00;;;0.00;99.90;;;;;;5051617;28;20239;-73
2021/03/07 01:33:11;;;;;;;20.13;12.80;;;0.00;99.90;;;;;;5051559;28;20196;-73
2021/03/07 01:35:38;;;;;;;18.47;12.80;;;-0.10;99.90;;;;;;5051627;28;20204;-74
2021/03/07 01:38:04;;;;;;;16.93;12.10;;;-0.10;99.90;;;;;;5051508;28;20239;-74
2021/03/07 01:40:34;;;;;;;17.47;11.87;;;0.10;99.90;;;;;;5051750;28;20259;-73
2021/03/07 01:43:03;;;;;;;18.53;12.33;;;0.20;99.90;;;;;;5051350;28;20270;-73
2021/03/07 01:45:31;;;;;;;17.27;12.13;;;0.10;99.90;;;;;;5039288;28;20240;-73
2021/03/07 01:47:59;;;;;;;16.53;12.20;;;0.00;99.90;;;;;;5031583;28;20244;-73
2021/03/07 01:50:29;;;;;;;17.33;11.83;;;0.00;99.90;;;;;;5034047;28;20236;-73
2021/03/07 01:52:56;;;;;;;18.03;12.47;;;-0.10;99.90;;;;;;5035428;28;20232;-73
2021/03/07 01:55:25;;;;;;;18.87;12.67;;;-0.10;99.90;;;;;;5035451;28;20612;-73
2021/03/07 01:57:59;;;;;;;18.40;12.83;;;-0.10;99.90;;;;;;5035386;28;20287;-73
2021/03/07 02:00:26;;;;;;;16.43;11.90;;;0.00;99.90;;;;;;5034980;28;20278;-73
2021/03/07 02:02:52;;;;;;;17.40;12.13;;;0.00;99.90;;;;;;5035025;28;20330;-73
2021/03/07 02:05:20;;;;;;;17.47;12.03;;;0.00;99.90;;;;;;5034800;28;20232;-73
2021/03/07 02:07:48;;;;;;;17.73;11.63;;;0.00;99.90;;;;;;5035036;28;20236;-73
2021/03/07 02:10:18;;;;;;;17.40;11.70;;;0.00;99.90;;;;;;5034850;28;20232;-73
2021/03/07 02:12:46;;;;;;;18.53;12.50;;;0.00;99.90;;;;;;5039874;28;20236;-73
2021/03/07 02:15:14;;;;;;;18.37;12.30;;;-0.20;99.90;;;;;;5035156;28;20239;-73
2021/03/07 02:17:41;;;;;;;17.70;11.53;;;-0.40;99.90;;;;;;5034856;28;20632;-73
2021/03/07 02:20:09;;;;;;;17.53;11.50;;;-0.50;99.90;;;;;;5034259;28;20323;-74
2021/03/07 02:22:39;;;;;;;19.37;12.70;;;-0.60;99.90;;;;;;5034952;28;20267;-74
2021/03/07 02:25:08;;;;;;;19.40;13.17;;;-0.60;99.90;;;;;;5034770;28;20239;-74
2021/03/07 02:27:35;;;;;;;18.87;12.47;;;-0.60;99.90;;;;;;5034710;28;20247;-74
2021/03/07 02:30:02;;;;;;;18.43;12.83;;;-0.50;99.90;;;;;;5034531;28;20240;-74
2021/03/07 02:32:31;;;;;;;17.97;12.73;;;-0.30;99.90;;;;;;5034388;28;20229;-74
2021/03/07 02:35:04;;;;;;;19.70;13.13;;;-0.40;99.90;;;;;;5034371;28;20246;-73
2021/03/07 02:37:33;;;;;;;18.17;12.17;;;-0.40;99.90;;;;;;5034430;28;20204;-73
2021/03/07 02:40:00;;;;;;;18.03;12.67;;;-0.50;99.90;;;;;;5034487;28;20228;-74
2021/03/07 02:42:29;;;;;;;19.00;12.77;;;-0.50;99.90;;;;;;5034360;28;20311;-74
2021/03/07 02:44:59;;;;;;;20.40;12.47;;;-0.50;99.90;;;;;;5041446;28;20208;-73
2021/03/07 02:47:28;;;;;;;18.90;13.20;;;-0.50;99.90;;;;;;5053804;28;20334;-74
2021/03/07 02:49:57;;;;;;;18.27;12.43;;;-0.70;99.90;;;;;;5036966;28;20238;-73
2021/03/07 02:52:23;;;;;;;17.83;12.40;;;-0.80;99.90;;;;;;5053923;28;20240;-74
2021/03/07 02:54:51;;;;;;;18.00;13.17;;;-0.80;99.90;;;;;;5053896;28;20231;-73
2021/03/07 02:57:20;;;;;;;20.50;13.10;;;-0.90;99.90;;;;;;5054155;28;20713;-74
2021/03/07 02:59:51;;;;;;;18.47;12.63;;;-1.00;99.90;;;;;;5053881;28;20234;-74
2021/03/07 03:02:19;;;;;;;18.80;12.70;;;-1.00;99.90;;;;;;5052951;28;20224;-74
2021/03/07 03:04:47;;;;;;;20.33;13.17;;;-0.80;99.90;;;;;;5054349;28;20496;-74
2021/03/07 03:07:14;;;;;;;20.30;13.10;;;-0.80;99.90;;;;;;5054032;28;20227;-74
2021/03/07 03:09:42;;;;;;;19.47;13.23;;;-0.90;99.90;;;;;;5053829;28;20660;-74
2021/03/07 03:12:10;;;;;;;17.67;11.67;;;-0.80;99.90;;;;;;5053713;28;20289;-74
2021/03/07 03:14:37;;;;;;;19.13;13.03;;;-0.90;99.90;;;;;;5053679;28;20679;-73
2021/03/07 03:17:05;;;;;;;18.40;12.80;;;-0.90;99.90;;;;;;5053689;28;20255;-74
2021/03/07 03:19:34;;;;;;;17.13;12.10;;;-1.00;99.90;;;;;;5053518;28;20278;-73
2021/03/07 03:22:01;;;;;;;19.43;12.93;;;-1.10;99.90;;;;;;5053799;28;20569;-74
2021/03/07 03:24:28;;;;;;;19.27;12.90;;;-1.20;99.90;;;;;;5053776;28;20659;-74
2021/03/07 03:27:01;;;;;;;18.97;12.77;;;-1.20;99.90;;;;;;5053422;28;20231;-73
2021/03/07 03:29:29;;;;;;;19.53;12.97;;;-1.20;99.90;;;;;;5053444;28;20235;-73
2021/03/07 03:31:57;;;;;;;20.07;12.97;;;-1.10;99.90;;;;;;5052776;28;20253;-74
2021/03/07 03:34:24;;;;;;;21.67;13.87;;;-1.00;99.90;;;;;;5035638;28;20222;-74
2021/03/07 03:36:51;;;;;;;19.53;13.57;;;-1.10;99.90;;;;;;5053273;28;20230;-74
2021/03/07 03:39:19;;;;;;;20.43;13.53;;;-1.10;99.90;;;;;;5053408;28;20231;-74
2021/03/07 03:41:50;;;;;;;21.77;14.13;;;-1.10;99.90;;;;;;5053430;28;20315;-73
2021/03/07 03:44:21;;;;;;;20.80;12.53;;;-1.10;99.90;;;;;;5053242;28;20254;-74
2021/03/07 03:46:51;;;;;;;21.37;14.13;;;-1.20;99.90;;;;;;5037773;28;20235;-73
2021/03/07 03:49:25;;;;;;;18.13;12.70;;;-1.30;99.90;;;;;;5033295;28;20208;-74
2021/03/07 03:51:59;;;;;;;18.70;12.50;;;-1.30;99.90;;;;;;5033164;28;20246;-74
2021/03/07 03:54:28;;;;;;;18.97;12.93;;;-1.30;99.90;;;;;;5032898;28;20207;-74
2021/03/07 03:56:56;;;;;;;19.37;13.43;;;-1.40;99.90;;;;;;5033288;28;20291;-74
2021/03/07 03:59:25;;;;;;;19.03;12.67;;;-1.40;99.90;;;;;;5015289;28;20293;-73
2021/03/07 04:01:53;;;;;;;21.27;13.47;;;-1.50;99.90;;;;;;5032913;28;20307;-74
2021/03/07 04:04:20;;;;;;;20.63;13.70;;;-1.50;99.90;;;;;;5032486;28;20205;-74
2021/03/07 04:06:47;;;;;;;20.03;13.73;;;-1.50;99.90;;;;;;5032802;28;20232;-74
2021/03/07 04:09:15;;;;;;;19.30;13.77;;;-1.50;99.90;;;;;;5033018;28;20238;-73
2021/03/07 04:11:42;;;;;;;20.13;13.57;;;-1.50;99.90;;;;;;5032872;28;20227;-74
2021/03/07 04:14:09;;;;;;;19.53;12.57;;;-1.50;99.90;;;;;;5031854;28;20254;-74
2021/03/07 04:16:35;;;;;;;20.83;13.73;;;-1.50;99.90;;;;;;5048367;28;20246;-74
2021/03/07 04:19:02;;;;;;;19.47;13.40;;;-1.50;99.90;;;;;;5052345;28;20267;-74
2021/03/07 04:21:29;;;;;;;19.97;13.23;;;-1.50;99.90;;;;;;5034671;28;20227;-73
2021/03/07 04:23:55;;;;;;;20.53;13.60;;;-1.60;99.90;;;;;;5052305;28;20289;-74
2021/03/07 04:26:23;;;;;;;18.17;13.33;;;-1.60;99.90;;;;;;5052216;28;20238;-74
2021/03/07 04:28:50;;;;;;;22.80;13.67;;;-1.50;99.90;;;;;;5052219;28;20254;-73
2021/03/07 04:31:17;;;;;;;19.87;13.43;;;-1.50;99.90;;;;;;5052420;28;20625;-74
2021/03/07 04:33:43;;;;;;;20.10;13.17;;;-1.50;99.90;;;;;;5052639;28;20242;-73
2021/03/07 04:36:10;;;;;;;19.37;13.47;;;-1.60;99.90;;;;;;5052263;28;20675;-74
2021/03/07 04:38:38;;;;;;;21.33;14.00;;;-1.70;99.90;;;;;;5052092;28;20207;-74
2021/03/07 04:41:04;;;;;;;20.60;13.47;;;-1.70;99.90;;;;;;5052151;28;20256;-74
2021/03/07 04:43:41;;;;;;;19.00;13.17;;;-1.80;99.90;;;;;;5051710;28;20802;-74
2021/03/07 04:46:08;;;;;;;20.10;13.17;;;-1.80;99.90;;;;;;5044533;28;20239;-74
2021/03/07 04:48:34;;;;;;;19.57;13.27;;;-1.80;99.90;;;;;;5032129;28;20290;-74
2021/03/07 04:51:00;;;;;;;21.63;14.47;;;-1.90;99.90;;;;;;5032163;28;20620;-74
2021/03/07 04:53:27;;;;;;;20.90;13.97;;;-1.90;99.90;;;;;;5032204;28;20224;-74
2021/03/07 04:55:53;;;;;;;25.07;15.67;;;-2.00;99.90;;;;;;5031961;28;20243;-74
2021/03/07 04:58:20;;;;;;;27.50;16.70;;;-2.00;99.90;;;;;;5032110;28;20592;-73
2021/03/07 05:00:47;;;;;;;27.23;17.77;;;-2.00;99.90;;;;;;5032402;28;20368;-73
2021/03/07 05:03:13;;;;;;;27.60;17.03;;;-2.00;99.90;;;;;;5032003;28;20259;-74
2021/03/07 05:05:39;;;;;;;28.57;18.77;;;-2.10;99.90;;;;;;5032007;28;20262;-74
2021/03/07 05:08:07;;;;;;;25.33;15.67;;;-2.10;99.90;;;;;;5031856;28;20243;-74
2021/03/07 05:10:33;;;;;;;24.47;16.07;;;-2.10;99.90;;;;;;5031980;28;20203;-73
2021/03/07 05:13:00;;;;;;;25.37;15.23;;;-2.10;99.90;;;;;;5031930;28;20295;-74
2021/03/07 05:15:26;;;;;;;22.53;15.47;;;-2.00;99.90;;;;;;5036706;28;20234;-74
2021/03/07 05:17:53;;;;;;;25.10;15.80;;;-2.00;99.90;;;;;;5051798;28;20302;-74
2021/03/07 05:20:20;;;;;;;20.17;13.43;;;-2.00;99.90;;;;;;5051783;28;20246;-73
2021/03/07 05:22:46;;;;;;;22.77;15.00;;;-2.10;99.90;;;;;;5051512;28;20274;-74
2021/03/07 05:25:13;;;;;;;26.00;14.63;;;-2.20;99.90;;;;;;5054345;28;20231;-74
2021/03/07 05:27:40;;;;;;;20.80;14.00;;;-2.20;99.90;;;;;;5055562;28;20245;-74
2021/03/07 05:30:08;;;;;;;23.53;14.43;;;-2.20;99.90;;;;;;5055591;28;20246;-73
2021/03/07 05:32:34;;;;;;;22.30;14.67;;;-2.20;99.90;;;;;;5055614;28;20258;-73
2021/03/07 05:35:03;;;;;;;21.27;13.73;;;-2.20;99.90;;;;;;5055613;28;20299;-73
2021/03/07 05:37:30;;;;;;;23.33;14.23;;;-2.20;99.90;;;;;;5055601;28;20217;-74
2021/03/07 05:39:56;;;;;;;22.47;14.50;;;-2.20;99.90;;;;;;5055466;28;20237;-73
2021/03/07 05:42:23;;;;;;;26.07;14.27;;;-2.30;99.90;;;;;;5055181;28;20270;-73
2021/03/07 05:44:50;;;;;;;23.10;13.80;;;-2.30;99.90;;;;;;5055248;28;20690;-73
2021/03/07 05:47:17;;;;;;;23.50;15.00;;;-2.30;99.90;;;;;;5055249;28;20244;-73
2021/03/07 05:49:43;;;;;;;21.77;14.53;;;-2.30;99.90;;;;;;5055151;28;20207;-73
2021/03/07 05:52:11;;;;;;;22.03;14.03;;;-2.30;99.90;;;;;;5055282;28;20624;-73
2021/03/07 05:54:38;;;;;;;21.43;14.20;;;-2.40;99.90;;;;;;5055406;28;20278;-73
2021/03/07 05:57:06;;;;;;;20.83;14.53;;;-2.30;99.90;;;;;;5055074;28;20271;-73
2021/03/07 05:59:35;;;;;;;22.03;14.67;;;-2.30;99.90;;;;;;5054941;28;20247;-73
2021/03/07 06:02:03;;;;;;;23.87;14.67;;;-2.30;99.90;;;;;;5055345;28;20229;-73
2021/03/07 06:04:30;;;;;;;24.33;14.63;;;-2.40;99.90;;;;;;5054917;28;20203;-73
2021/03/07 06:06:56;;;;;;;21.97;15.00;;;-2.40;99.90;;;;;;5055094;28;20586;-73
2021/03/07 06:09:27;;;;;;;24.13;15.67;;;-2.50;99.90;;;;;;5055213;28;20233;-73
2021/03/07 06:11:54;;;;;;;22.10;14.07;;;-2.50;99.90;;;;;;5054703;28;20249;-73
2021/03/07 06:14:23;;;;;;;23.57;15.13;;;-2.50;99.90;;;;;;5054830;28;20234;-73
2021/03/07 06:17:00;;;;;;;24.23;15.30;;;-2.50;99.90;;;;;;5054177;28;20792;-73
2021/03/07 06:19:27;;;;;;;23.57;14.50;;;-2.40;99.90;;;;;;5054480;28;20240;-73
2021/03/07 06:21:54;;;;;;;24.30;15.20;;;-2.50;99.90;;;;;;5054615;28;20631;-73
2021/03/07 06:24:36;;;;;;;21.40;14.63;;;-2.60;99.90;;;;;;5054317;28;20201;-73
2021/03/07 06:27:07;;;;;;;22.03;14.57;;;-2.70;99.90;;;;;;5054935;28;20245;-73
2021/03/07 06:29:34;;;;;;;20.37;14.17;;;-2.80;99.90;;;;;;5054612;28;20632;-73
2021/03/07 06:32:01;;;;;;;22.13;14.57;;;-2.80;99.90;;;;;;5054855;28;20241;-73
2021/03/07 06:34:27;;;;;;;24.83;15.73;;;-2.80;99.90;;;;;;5054653;28;20240;-73
2021/03/07 06:37:03;;;;;;;23.60;15.23;;;-2.90;99.90;;;;;;5053444;28;20370;-73
2021/03/07 06:39:30;;;;;;;23.20;14.43;;;-2.80;99.90;;;;;;5054292;28;20703;-73
2021/03/07 06:42:04;;;;;;;22.23;14.23;;;-2.80;99.90;;;;;;5054555;28;20313;-74
2021/03/07 06:44:32;;;;;;;23.20;15.03;;;-2.70;99.90;;;;;;5054477;28;20948;-73
2021/03/07 06:47:08;;;;;;;22.63;15.03;;;-2.70;99.90;;;;;;5046377;28;20237;-73
2021/03/07 06:49:35;;;;;;;23.30;14.83;;;-2.60;99.90;;;;;;5034260;28;20681;-73
2021/03/07 06:52:20;;;;;;;24.10;14.80;;;-2.60;99.90;;;;;;5034350;28;20207;-73
2021/03/07 06:55:03;;;;;;;23.83;15.57;;;-2.50;99.90;;;;;;5033915;28;20238;-73
2021/03/07 06:57:30;;;;;;;23.60;15.40;;;-2.20;99.90;;;;;;5034081;28;20247;-73
2021/03/07 06:59:57;;;;;;;23.70;15.40;;;-1.80;99.90;;;;;;5034459;28;20239;-73
2021/03/07 07:02:24;;;;;;;24.70;15.70;;;-1.50;99.90;;;;;;5034425;28;20317;-73
2021/03/07 07:04:50;;;;;;;20.43;14.60;;;-1.10;99.90;;;;;;5033852;28;20243;-73
2021/03/07 07:07:20;;;;;;;21.23;14.80;;;-0.60;99.90;;;;;;5034048;28;20758;-73
2021/03/07 07:09:48;;;;;;;20.20;13.90;;;-0.20;99.90;;;;;;5033749;28;20207;-74
2021/03/07 07:12:21;;;;;;;20.37;14.30;;;0.30;99.90;;;;;;5033805;28;20335;-74
2021/03/07 07:14:50;;;;;;;18.87;13.43;;;0.80;99.90;;;;;;5033887;28;20238;-74
2021/03/07 07:17:18;;;;;;;17.93;13.43;;;1.40;99.90;;;;;;5034233;28;20596;-74
2021/03/07 07:19:46;;;;;;;17.33;13.47;;;2.10;99.90;;;;;;5053552;28;20236;-74
2021/03/07 07:22:16;;;;;;;19.97;13.80;;;2.60;99.90;;;;;;5053666;28;20310;-74
2021/03/07 07:24:44;;;;;;;18.77;13.80;;;3.20;99.90;;;;;;5053674;28;20224;-75
2021/03/07 07:27:11;;;;;;;18.57;14.20;;;3.80;99.90;;;;;;5053679;28;20695;-74
2021/03/07 07:29:39;;;;;;;18.40;14.47;;;4.30;99.90;;;;;;5053590;28;20237;-74
2021/03/07 07:32:11;;;;;;;17.80;14.53;;;5.00;99.90;;;;;;5053398;28;20257;-75
2021/03/07 07:34:44;;;;;;;17.07;13.47;;;5.30;99.90;;;;;;5053645;28;20231;-74
2021/03/07 07:37:20;;;;;;;17.40;13.70;;;5.40;99.90;;;;;;5036588;28;20247;-75
2021/03/07 07:39:51;;;;;;;14.90;12.37;;;5.40;99.90;;;;;;5053482;28;20239;-75
2021/03/07 07:42:23;;;;;;;15.83;12.93;;;5.70;99.90;;;;;;5053234;28;20260;-74
2021/03/07 07:44:51;;;;;;;16.57;13.70;;;6.10;99.90;;;;;;5053517;28;20239;-75
2021/03/07 07:47:19;;;;;;;16.93;14.97;;;6.10;99.90;;;;;;5051556;28;20669;-75
2021/03/07 07:49:47;;;;;;;19.23;16.10;;;6.30;99.90;;;;;;5033097;28;20227;-75
2021/03/07 07:52:39;;;;;;;16.60;14.47;;;6.20;99.90;;;;;;5032749;28;20223;-75
2021/03/07 07:55:11;;;;;;;16.67;14.80;;;6.50;99.90;;;;;;5032695;28;20247;-75
2021/03/07 07:57:51;;;;;;;16.30;14.60;;;6.80;99.90;;;;;;5032821;28;20198;-75
2021/03/07 08:00:48;;;;;;;17.27;14.67;;;7.50;99.90;;;;;;5033034;28;20196;-75
2021/03/07 08:03:34;;;;;;;16.37;14.30;;;8.10;99.90;;;;;;5032912;28;20310;-75
2021/03/07 08:06:02;;;;;;;16.87;14.87;;;8.60;99.90;;;;;;5032537;28;20240;-75
2021/03/07 08:08:34;;;;;;;16.47;14.53;;;8.60;99.90;;;;;;5032798;28;20247;-75
2021/03/07 08:11:03;;;;;;;18.13;15.47;;;8.70;99.90;;;;;;5032652;28;20232;-75
2021/03/07 08:13:49;;;;;;;19.07;14.60;;;8.70;99.90;;;;;;5032873;28;20235;-75
2021/03/07 08:16:43;;;;;;;19.20;14.60;;;9.00;99.90;;;;;;5032487;28;20292;-75
2021/03/07 08:19:13;;;;;;;15.60;14.00;;;9.20;99.90;;;;;;5045166;28;20232;-75
2021/03/07 08:21:57;;;;;;;17.03;14.83;;;9.90;99.90;;;;;;5052477;28;20243;-75
2021/03/07 08:24:45;;;;;;;20.23;15.80;;;10.20;99.90;;;;;;5052622;28;20280;-76
2021/03/07 08:27:30;;;;;;;16.30;14.60;;;10.00;99.90;;;;;;5052356;28;20227;-76
2021/03/07 08:29:57;;;;;;;16.30;14.70;;;10.50;99.90;;;;;;5052521;28;20235;-76
2021/03/07 08:32:36;;;;;;;15.30;13.70;;;10.50;99.90;;;;;;5052418;28;20231;-76
2021/03/07 08:35:11;;;;;;;16.13;14.43;;;11.10;99.90;;;;;;5051588;28;20200;-76
2021/03/07 08:37:38;;;;;;;14.43;12.93;;;10.30;99.90;;;;;;5052031;28;20228;-76
2021/03/07 08:40:28;;;;;;;15.20;13.70;;;10.80;99.90;;;;;;5052100;28;20288;-76
2021/03/07 08:42:55;;;;;;;16.07;14.20;;;10.90;99.90;;;;;;5052130;28;20228;-76
2021/03/07 08:45:22;;;;;;;15.67;14.07;;;10.20;99.90;;;;;;5034821;28;20227;-76
2021/03/07 08:47:53;;;;;;;17.00;13.80;;;10.00;99.90;;;;;;5050726;28;20298;-76
2021/03/07 08:50:21;;;;;;;15.90;14.30;;;10.60;99.90;;;;;;5032133;28;20254;-75
2021/03/07 08:52:49;;;;;;;15.17;13.70;;;10.20;99.90;;;;;;5032330;28;20265;-76
2021/03/07 08:55:16;;;;;;;15.63;13.90;;;9.90;99.90;;;;;;5032173;28;20239;-76
2021/03/07 08:57:47;;;;;;;15.20;13.70;;;9.90;99.90;;;;;;5032241;28;20204;-75
2021/03/07 09:00:16;;;;;;;15.17;13.20;;;10.80;99.90;;;;;;5031511;28;20204;-76
2021/03/07 09:02:44;;;;;;;15.63;13.80;;;10.10;99.90;;;;;;5031860;28;20260;-76
2021/03/07 09:05:28;;;;;;;16.50;13.60;;;10.50;99.90;;;;;;5031914;28;20205;-75
2021/03/07 09:07:59;;;;;;;15.50;14.00;;;10.70;99.90;;;;;;5032049;28;20235;-75
2021/03/07 09:10:35;;;;;;;15.27;13.70;;;10.80;99.90;;;;;;5031706;28;20287;-75
2021/03/07 09:13:10;;;;;;;15.13;13.53;;;9.60;99.90;;;;;;5031813;28;20200;-76
2021/03/07 09:15:38;;;;;;;17.13;14.27;;;9.80;99.90;;;;;;5031658;28;20203;-76
2021/03/07 09:18:05;;;;;;;16.53;14.43;;;10.80;99.90;;;;;;5031448;28;20734;-76
2021/03/07 09:20:44;;;;;;;16.93;14.50;;;10.20;99.90;;;;;;5014001;28;20252;-76
2021/03/07 09:23:30;;;;;;;15.97;14.10;;;10.90;99.90;;;;;;5031755;28;20636;-75
2021/03/07 09:25:57;;;;;;;15.93;14.23;;;10.70;99.90;;;;;;5031118;28;20227;-76
2021/03/07 09:28:36;;;;;;;15.77;14.07;;;10.70;99.90;;;;;;5031885;28;20200;-76
2021/03/07 09:31:05;;;;;;;15.77;13.83;;;11.00;99.90;;;;;;5031609;28;20749;-75
2021/03/07 09:33:32;;;;;;;18.03;14.23;;;11.60;99.90;;;;;;5031450;28;20228;-76
2021/03/07 09:36:05;;;;;;;16.27;14.40;;;11.20;99.90;;;;;;5031786;28;20232;-75
2021/03/07 09:38:44;;;;;;;15.57;13.97;;;12.40;99.90;;;;;;5032026;28;20228;-76
2021/03/07 09:41:11;;;;;;;15.27;13.03;;;12.00;99.90;;;;;;5031717;28;20213;-76
2021/03/07 09:43:38;;;;;;;15.70;13.90;;;12.10;99.90;;;;;;5031355;28;20263;-76
2021/03/07 09:46:06;;;;;;;15.30;13.70;;;12.40;99.90;;;;;;5031982;28;20243;-76
2021/03/07 09:48:35;;;;;;;15.50;13.83;;;12.30;99.90;;;;;;5031669;28;20202;-76
2021/03/07 09:51:04;;;;;;;15.30;13.70;;;13.00;99.90;;;;;;5050580;28;20258;-74
2021/03/07 09:53:31;;;;;;;15.13;13.53;;;13.00;99.90;;;;;;5051291;28;20234;-75
2021/03/07 09:55:58;;;;;;;15.50;13.90;;;12.30;99.90;;;;;;5051653;28;20208;-76
2021/03/07 09:58:35;;;;;;;15.60;13.73;;;11.90;99.90;;;;;;5051258;28;20192;-76
2021/03/07 10:01:04;;;;;;;16.90;14.13;;;12.70;99.90;;;;;;5051324;28;20579;-75
2021/03/07 10:03:32;;;;;;;15.60;14.00;;;12.50;99.90;;;;;;5050342;28;20255;-75
2021/03/07 10:06:07;;;;;;;14.63;13.13;;;13.50;99.90;;;;;;5051622;28;20234;-76
2021/03/07 10:08:35;;;;;;;15.40;13.80;;;12.90;99.90;;;;;;5051261;28;20777;-74
2021/03/07 10:11:19;;;;;;;15.73;13.90;;;13.10;99.90;;;;;;5052884;28;20322;-74
2021/03/07 10:13:46;;;;;;;16.73;14.23;;;13.10;99.90;;;;;;5038912;28;20199;-74
2021/03/07 10:16:25;;;;;;;14.67;13.17;;;13.70;99.90;;;;;;5054535;28;20287;-76
2021/03/07 10:19:06;;;;;;;14.50;13.00;;;13.50;99.90;;;;;;5054546;28;20732;-76
2021/03/07 10:21:34;;;;;;;14.90;13.27;;;12.50;99.90;;;;;;5034854;28;20236;-76
2021/03/07 10:24:08;;;;;;;15.07;13.57;;;12.90;99.90;;;;;;5034785;28;20267;-75
2021/03/07 10:26:35;;;;;;;15.60;14.00;;;13.20;99.90;;;;;;5034587;28;20631;-76
2021/03/07 10:29:08;;;;;;;15.73;13.40;;;12.90;99.90;;;;;;5035017;28;20605;-76
2021/03/07 10:31:34;;;;;;;15.10;13.30;;;13.30;99.90;;;;;;5034342;28;20683;-75
2021/03/07 10:34:01;;;;;;;14.67;13.07;;;13.30;99.90;;;;;;5034678;28;20657;-74
2021/03/07 10:36:27;;;;;;;14.20;12.70;;;13.20;99.90;;;;;;5034541;28;20287;-76
2021/03/07 10:39:10;;;;;;;14.17;12.77;;;13.30;99.90;;;;;;5034468;28;20738;-74
2021/03/07 10:41:37;;;;;;;14.17;12.67;;;13.50;99.90;;;;;;5034433;28;20235;-73
2021/03/07 10:44:05;;;;;;;13.73;12.30;;;13.30;99.90;;;;;;5034319;28;20270;-74
2021/03/07 10:46:33;;;;;;;13.90;12.10;;;13.30;99.90;;;;;;5034102;28;20278;-76
2021/03/07 10:49:01;;;;;;;14.10;12.60;;;13.40;99.90;;;;;;5034541;28;20204;-73
2021/03/07 10:51:29;;;;;;;13.67;12.20;;;13.50;99.90;;;;;;5049965;28;20298;-75
2021/03/07 10:53:56;;;;;;;13.13;11.87;;;13.40;99.90;;;;;;5054131;28;20227;-76
2021/03/07 10:56:30;;;;;;;13.60;12.20;;;14.20;99.90;;;;;;5054135;28;20207;-74
2021/03/07 10:58:56;;;;;;;13.57;11.47;;;13.70;99.90;;;;;;5054110;28;20734;-73
2021/03/07 11:01:23;;;;;;;12.60;11.40;;;13.80;99.90;;;;;;5053585;28;20292;-76
2021/03/07 11:03:49;;;;;;;13.87;11.73;;;13.90;99.90;;;;;;5053886;28;20274;-76
2021/03/07 11:06:18;;;;;;;12.73;11.47;;;14.70;98.40;;;;;;5053861;28;20235;-75
2021/03/07 11:08:45;;;;;;;12.37;11.07;;;14.50;99.10;;;;;;5053772;28;20726;-75
2021/03/07 11:11:12;;;;;;;12.73;11.43;;;13.50;96.30;;;;;;5053891;28;20258;-76
2021/03/07 11:13:39;;;;;;;11.17;9.97;;;13.70;96.80;;;;;;5053812;28;20287;-76
2021/03/07 11:16:07;;;;;;;12.23;9.70;;;13.70;98.30;;;;;;5053495;28;20231;-76
2021/03/07 11:18:33;;;;;;;10.70;9.60;;;12.90;97.20;;;;;;5053140;28;20267;-76
2021/03/07 11:21:00;;;;;;;11.43;9.70;;;12.80;96.60;;;;;;5029546;28;20232;-76
2021/03/07 11:23:26;;;;;;;10.47;9.17;;;13.60;98.10;;;;;;5033051;28;20264;-75
2021/03/07 11:25:53;;;;;;;10.50;9.40;;;14.40;97.70;;;;;;5033681;28;20240;-75
2021/03/07 11:28:19;;;;;;;11.47;8.70;;;14.00;96.90;;;;;;5033474;28;20240;-76
2021/03/07 11:30:46;;;;;;;9.70;8.70;;;13.20;94.60;;;;;;5033300;28;20246;-76
2021/03/07 11:33:13;;;;;;;10.43;9.33;;;12.80;94.20;;;;;;5033522;28;20239;-75
2021/03/07 11:35:40;;;;;;;11.77;9.77;;;13.50;94.70;;;;;;5033219;28;20236;-75
2021/03/07 11:38:06;;;;;;;14.83;11.93;;;13.90;94.70;;;;;;5033103;28;20209;-76
2021/03/07 11:40:33;;;;;;;10.37;9.27;;;14.70;94.40;;;;;;5033119;28;20232;-76
2021/03/07 11:42:59;;;;;;;10.33;9.30;;;14.50;94.30;;;;;;5032849;28;20270;-74
2021/03/07 11:45:26;;;;;;;10.60;9.50;;;13.60;94.00;;;;;;5032814;28;20249;-74
2021/03/07 11:47:54;;;;;;;10.03;9.03;;;13.00;94.50;;;;;;5033377;28;20236;-75
2021/03/07 11:50:20;;;;;;;12.60;9.83;;;13.70;94.50;;;;;;5033155;28;20291;-74
2021/03/07 11:52:47;;;;;;;11.27;8.73;;;14.40;94.80;;;;;;5032920;28;20235;-74
2021/03/07 11:55:13;;;;;;;11.43;9.13;;;13.60;92.30;;;;;;5033237;28;20255;-74
2021/03/07 11:57:40;;;;;;;9.90;8.90;;;14.00;92.50;;;;;;5032869;28;20236;-74
2021/03/07 12:00:08;;;;;;;13.33;9.87;;;13.90;91.40;;;;;;5032598;28;20239;-75
2021/03/07 12:02:35;;;;;;;10.43;8.80;;;13.90;91.60;;;;;;5015085;28;20668;-74
2021/03/07 12:05:03;;;;;;;10.13;9.00;;;13.00;93.90;;;;;;5032942;28;20208;-74
2021/03/07 12:07:29;;;;;;;11.27;9.57;;;13.50;91.90;;;;;;5032549;28;20258;-74
2021/03/07 12:09:56;;;;;;;11.33;10.13;;;13.90;93.00;;;;;;5033165;28;20239;-74
2021/03/07 12:12:22;;;;;;;10.40;9.37;;;14.30;92.00;;;;;;5032441;28;20243;-74
2021/03/07 12:14:49;;;;;;;10.00;9.00;;;13.50;90.40;;;;;;5032859;28;20239;-74
2021/03/07 12:17:15;;;;;;;10.53;9.03;;;13.30;93.60;;;;;;5032574;28;20731;-74
2021/03/07 12:19:41;;;;;;;10.63;9.63;;;13.60;93.40;;;;;;5032295;28;20268;-74
2021/03/07 12:22:09;;;;;;;11.37;9.90;;;13.00;94.00;;;;;;5032379;28;20247;-74
2021/03/07 12:24:35;;;;;;;10.53;9.43;;;13.70;93.30;;;;;;5032595;28;20238;-73
2021/03/07 12:27:05;;;;;;;10.80;9.60;;;14.30;93.70;;;;;;5032391;28;20236;-74
2021/03/07 12:29:32;;;;;;;10.40;9.40;;;14.40;96.70;;;;;;5032290;28;20215;-74
2021/03/07 12:31:59;;;;;;;10.30;8.70;;;15.30;95.90;;;;;;5032624;28;20250;-75
2021/03/07 12:34:25;;;;;;;10.47;9.10;;;15.40;92.40;;;;;;5031634;28;20228;-74
2021/03/07 12:36:52;;;;;;;10.53;9.03;;;14.30;92.80;;;;;;5032663;28;20259;-74
2021/03/07 12:39:20;;;;;;;13.97;10.30;;;14.30;90.40;;;;;;5032738;28;20200;-74